createdAt,value
2019-02-28T00:00:59.823Z,3.50
2019-02-28T00:03:27.353Z,3.50
2019-02-28T00:05:54.850Z,3.50
2019-02-28T00:08:22.479Z,3.50
2019-02-28T00:10:49.903Z,3.50
2019-02-28T00:13:21.387Z,3.50
2019-02-28T00:15:46.601Z,3.50
2019-02-28T00:18:15.472Z,3.40
2019-02-28T00:20:43.994Z,3.30
2019-02-28T00:23:11.543Z,3.30
2019-02-28T00:25:38.966Z,3.40
2019-02-28T00:28:06.384Z,3.30
2019-02-28T00:30:34.039Z,3.40
2019-02-28T00:33:01.427Z,3.40
2019-02-28T00:35:28.849Z,3.30
2019-02-28T00:37:57.366Z,3.40
2019-02-28T00:40:24.914Z,3.30
2019-02-28T00:42:52.479Z,3.40
2019-02-28T00:45:21.625Z,3.40
2019-02-28T00:47:49.020Z,3.50
2019-02-28T00:50:16.445Z,3.70
2019-02-28T00:52:43.943Z,3.80
2019-02-28T00:55:14.516Z,3.80
2019-02-28T00:57:40.544Z,3.80
2019-02-28T01:00:09.210Z,3.90
2019-02-28T01:02:36.671Z,3.90
2019-02-28T01:05:04.831Z,3.90
2019-02-28T01:07:33.872Z,4.00
2019-02-28T01:10:04.288Z,4.00
2019-02-28T01:12:32.432Z,4.00
2019-02-28T01:14:59.967Z,4.00
2019-02-28T01:17:27.473Z,4.00
2019-02-28T01:19:55.025Z,4.00
2019-02-28T01:22:22.519Z,4.00
2019-02-28T01:24:49.949Z,4.00
2019-02-28T01:27:21.031Z,4.10
2019-02-28T01:29:47.155Z,4.10
2019-02-28T01:32:15.642Z,4.10
2019-02-28T01:34:43.759Z,4.10
2019-02-28T01:37:11.286Z,4.10
2019-02-28T01:39:38.689Z,4.10
2019-02-28T01:42:06.081Z,4.00
2019-02-28T01:44:35.823Z,4.00
2019-02-28T01:47:03.494Z,4.00
2019-02-28T01:49:30.914Z,4.00
2019-02-28T01:51:58.378Z,4.00
2019-02-28T01:54:27.782Z,4.00
2019-02-28T01:56:54.984Z,4.10
2019-02-28T01:59:22.638Z,4.10
2019-02-28T02:01:50.071Z,4.20
2019-02-28T02:04:17.474Z,4.20
2019-02-28T02:06:44.919Z,4.20
2019-02-28T02:09:12.320Z,4.20
2019-02-28T02:11:39.714Z,4.20
2019-02-28T02:14:07.475Z,4.20
2019-02-28T02:16:36.335Z,4.30
2019-02-28T02:19:03.961Z,4.20
2019-02-28T02:21:34.635Z,4.20
2019-02-28T02:24:00.583Z,4.20
2019-02-28T02:26:27.970Z,4.20
2019-02-28T02:29:00.893Z,4.10
2019-02-28T02:31:28.858Z,4.10
2019-02-28T02:33:54.166Z,4.10
2019-02-28T02:36:21.618Z,4.10
2019-02-28T02:38:49.019Z,4.20
2019-02-28T02:41:16.415Z,4.10
2019-02-28T02:43:45.243Z,4.10
2019-02-28T02:46:19.734Z,4.10
2019-02-28T02:48:42.284Z,4.00
2019-02-28T02:51:12.385Z,4.00
2019-02-28T02:53:41.905Z,4.00
2019-02-28T02:56:09.340Z,4.00
2019-02-28T02:58:36.817Z,4.10
2019-02-28T03:01:04.198Z,4.00
2019-02-28T03:03:31.603Z,4.10
2019-02-28T03:05:59.072Z,4.00
2019-02-28T03:08:26.449Z,4.00
2019-02-28T03:10:53.850Z,3.90
2019-02-28T03:13:21.293Z,3.90
2019-02-28T03:15:48.663Z,3.80
2019-02-28T03:18:20.547Z,3.80
2019-02-28T03:20:45.468Z,3.80
2019-02-28T03:23:12.867Z,3.80
2019-02-28T03:25:40.267Z,3.90
2019-02-28T03:28:07.719Z,3.90
2019-02-28T03:30:35.156Z,4.00
2019-02-28T03:33:02.617Z,3.90
2019-02-28T03:35:40.159Z,3.90
2019-02-28T03:38:01.768Z,3.90
2019-02-28T03:40:29.170Z,3.90
2019-02-28T03:42:56.634Z,3.90
2019-02-28T03:45:24.206Z,3.80
2019-02-28T03:47:58.458Z,3.80
2019-02-28T03:50:22.383Z,3.80
2019-02-28T03:52:50.563Z,3.80
2019-02-28T03:55:17.863Z,3.80
2019-02-28T03:57:45.486Z,3.70
2019-02-28T04:00:15.032Z,3.80
2019-02-28T04:02:42.420Z,3.70
2019-02-28T04:05:10.066Z,3.80
2019-02-28T04:07:37.487Z,3.70
2019-02-28T04:10:05.495Z,3.70
2019-02-28T04:12:33.228Z,3.70
2019-02-28T04:15:00.640Z,3.70
2019-02-28T04:17:30.625Z,3.60
2019-02-28T04:20:00.038Z,3.60
2019-02-28T04:22:26.469Z,3.60
2019-02-28T04:24:53.858Z,3.60
2019-02-28T04:27:21.324Z,3.50
2019-02-28T04:29:48.739Z,3.50
2019-02-28T04:32:16.156Z,3.50
2019-02-28T04:34:45.814Z,3.50
2019-02-28T04:37:12.794Z,3.50
2019-02-28T04:39:40.202Z,3.50
2019-02-28T04:42:07.655Z,3.50
2019-02-28T04:44:35.276Z,3.50
2019-02-28T04:47:03.472Z,3.50
2019-02-28T04:49:32.122Z,3.50
2019-02-28T04:51:59.534Z,3.50
2019-02-28T04:54:27.896Z,3.50
2019-02-28T04:56:56.062Z,3.50
2019-02-28T04:59:23.466Z,3.50
2019-02-28T05:01:50.866Z,3.50
2019-02-28T05:04:18.300Z,3.60
2019-02-28T05:06:45.706Z,3.50
2019-02-28T05:09:14.555Z,3.50
2019-02-28T05:11:42.376Z,3.60
2019-02-28T05:14:09.827Z,3.50
2019-02-28T05:16:38.822Z,3.50
2019-02-28T05:19:06.378Z,3.50
2019-02-28T05:21:33.786Z,3.40
2019-02-28T05:24:01.189Z,3.50
2019-02-28T05:26:28.622Z,3.50
2019-02-28T05:28:56.014Z,3.50
2019-02-28T05:31:24.161Z,3.50
2019-02-28T05:33:52.656Z,3.50
2019-02-28T05:36:21.866Z,3.50
2019-02-28T05:38:49.250Z,3.50
2019-02-28T05:41:16.766Z,3.50
2019-02-28T05:43:44.255Z,3.50
2019-02-28T05:46:11.850Z,3.50
2019-02-28T05:48:39.666Z,3.50
2019-02-28T05:51:07.067Z,3.60
2019-02-28T05:53:35.664Z,3.60
2019-02-28T05:56:03.439Z,3.60
2019-02-28T05:58:30.871Z,3.60
2019-02-28T06:00:58.280Z,3.60
2019-02-28T06:03:25.742Z,3.60
2019-02-28T06:05:53.151Z,3.60
2019-02-28T06:08:20.546Z,3.60
2019-02-28T06:10:48.010Z,3.60
2019-02-28T06:13:18.264Z,3.60
2019-02-28T06:15:44.613Z,3.60
2019-02-28T06:18:12.047Z,3.60
2019-02-28T06:20:39.465Z,3.60
2019-02-28T06:23:09.307Z,3.60
2019-02-28T06:25:36.255Z,3.60
2019-02-28T06:28:03.644Z,3.60
2019-02-28T06:30:31.042Z,3.70
2019-02-28T06:32:59.582Z,3.80
2019-02-28T06:35:27.114Z,3.80
2019-02-28T06:37:54.522Z,3.90
2019-02-28T06:40:21.970Z,3.90
2019-02-28T06:42:49.385Z,4.00
2019-02-28T06:45:17.001Z,4.10
2019-02-28T06:47:48.208Z,4.10
2019-02-28T06:50:14.774Z,4.20
2019-02-28T06:52:42.162Z,4.30
2019-02-28T06:55:13.304Z,4.30
2019-02-28T06:57:40.775Z,4.40
2019-02-28T07:00:10.379Z,4.50
2019-02-28T07:02:38.060Z,4.50
2019-02-28T07:05:07.367Z,4.60
2019-02-28T07:07:34.767Z,4.70
2019-02-28T07:10:02.229Z,4.70
2019-02-28T07:12:30.441Z,4.80
2019-02-28T07:14:59.557Z,4.90
2019-02-28T07:17:27.001Z,5.00
2019-02-28T07:19:54.398Z,5.10
2019-02-28T07:22:21.814Z,5.10
2019-02-28T07:24:49.362Z,5.20
2019-02-28T07:27:16.759Z,5.30
2019-02-28T07:29:44.170Z,5.40
2019-02-28T07:32:11.755Z,5.50
2019-02-28T07:34:39.187Z,5.50
2019-02-28T07:37:06.602Z,5.60
2019-02-28T07:39:36.535Z,5.70
2019-02-28T07:42:03.642Z,5.80
2019-02-28T07:44:31.055Z,5.90
2019-02-28T07:46:58.672Z,5.90
2019-02-28T07:49:26.560Z,6.00
2019-02-28T07:51:56.892Z,6.10
2019-02-28T07:54:23.322Z,6.20
2019-02-28T07:56:50.762Z,6.20
2019-02-28T07:59:18.158Z,6.30
2019-02-28T08:01:45.636Z,6.40
2019-02-28T08:04:18.062Z,6.50
2019-02-28T08:06:42.234Z,6.50
2019-02-28T08:09:23.487Z,6.60
2019-02-28T08:11:55.560Z,6.70
2019-02-28T08:14:21.303Z,6.70
2019-02-28T08:16:49.099Z,6.80
2019-02-28T08:19:16.498Z,6.90
2019-02-28T08:21:47.610Z,7.00
2019-02-28T08:24:13.162Z,7.10
2019-02-28T08:26:40.547Z,7.10
2019-02-28T08:29:10.767Z,7.20
2019-02-28T08:31:37.191Z,7.30
2019-02-28T08:34:04.586Z,7.40
2019-02-28T08:36:31.996Z,7.50
2019-02-28T08:38:59.460Z,7.60
2019-02-28T08:41:26.874Z,7.70
2019-02-28T08:43:54.283Z,7.70
2019-02-28T08:46:21.726Z,7.80
2019-02-28T08:48:50.281Z,7.90
2019-02-28T08:51:17.681Z,8.00
2019-02-28T08:53:50.771Z,8.00
2019-02-28T08:56:14.909Z,8.10
2019-02-28T08:58:42.757Z,8.20
2019-02-28T09:01:10.261Z,8.20
2019-02-28T09:03:37.642Z,8.30
2019-02-28T09:06:07.148Z,8.40
2019-02-28T09:08:34.314Z,8.50
2019-02-28T09:11:01.719Z,8.50
2019-02-28T09:13:29.137Z,8.60
2019-02-28T09:15:56.690Z,8.70
2019-02-28T09:18:25.198Z,8.70
2019-02-28T09:21:12.125Z,8.80
2019-02-28T09:23:39.789Z,8.80
2019-02-28T09:26:07.194Z,8.90
2019-02-28T09:28:34.779Z,9.00
2019-02-28T09:31:04.952Z,9.10
2019-02-28T09:33:31.410Z,9.20
2019-02-28T09:35:58.996Z,9.30
2019-02-28T09:38:26.414Z,9.40
2019-02-28T09:40:53.815Z,9.40
2019-02-28T09:43:23.936Z,9.50
2019-02-28T09:45:50.601Z,9.50
2019-02-28T09:48:17.999Z,9.40
2019-02-28T09:50:45.730Z,9.50
2019-02-28T09:53:16.466Z,9.50
2019-02-28T09:55:42.367Z,9.60
2019-02-28T09:58:09.822Z,9.60
2019-02-28T10:00:37.247Z,9.70
2019-02-28T10:03:06.705Z,9.80
2019-02-28T10:05:33.930Z,9.90
2019-02-28T10:08:02.773Z,10.00
2019-02-28T10:10:30.542Z,10.10
2019-02-28T10:12:58.090Z,10.20
2019-02-28T10:15:25.805Z,10.20
2019-02-28T10:17:53.252Z,10.30
2019-02-28T10:20:26.283Z,10.30
2019-02-28T10:22:52.231Z,10.40
2019-02-28T10:25:19.910Z,10.50
2019-02-28T10:27:47.482Z,10.60
2019-02-28T10:30:16.914Z,10.70
2019-02-28T10:32:44.309Z,10.80
2019-02-28T10:35:12.463Z,10.80
2019-02-28T10:37:39.864Z,10.90
2019-02-28T10:40:08.608Z,11.00
2019-02-28T10:42:37.081Z,11.10
2019-02-28T10:45:07.177Z,11.20
2019-02-28T10:47:34.631Z,11.30
2019-02-28T10:50:02.218Z,11.40
2019-02-28T10:52:30.629Z,11.40
2019-02-28T10:54:58.103Z,11.50
2019-02-28T10:57:25.522Z,11.50
2019-02-28T10:59:55.176Z,11.60
2019-02-28T11:02:22.209Z,11.70
2019-02-28T11:04:49.966Z,11.70
2019-02-28T11:07:17.482Z,11.80
2019-02-28T11:09:46.877Z,11.90
2019-02-28T11:12:19.622Z,12.00
2019-02-28T11:14:45.786Z,12.00
2019-02-28T11:17:13.905Z,12.10
2019-02-28T11:19:41.674Z,12.30
2019-02-28T11:22:09.266Z,12.40
2019-02-28T11:24:36.874Z,12.50
2019-02-28T11:27:06.334Z,12.60
2019-02-28T11:29:35.210Z,12.70
2019-02-28T11:32:03.042Z,12.80
2019-02-28T11:34:31.062Z,12.90
2019-02-28T11:36:58.474Z,13.00
2019-02-28T11:39:27.577Z,13.00
2019-02-28T11:41:55.292Z,13.20
2019-02-28T11:44:22.694Z,13.30
2019-02-28T11:46:50.098Z,13.30
2019-02-28T11:49:17.522Z,13.40
2019-02-28T11:51:44.930Z,13.40
2019-02-28T11:54:13.406Z,13.30
2019-02-28T11:56:40.870Z,13.50
2019-02-28T11:59:08.296Z,13.60
2019-02-28T12:01:35.728Z,13.70
2019-02-28T12:04:03.281Z,13.80
2019-02-28T12:06:30.696Z,13.80
2019-02-28T12:08:58.047Z,13.80
2019-02-28T12:11:25.762Z,13.90
2019-02-28T12:13:55.171Z,14.00
2019-02-28T12:16:22.396Z,14.00
2019-02-28T12:18:49.863Z,14.10
2019-02-28T12:21:17.313Z,14.20
2019-02-28T12:23:44.874Z,14.30
2019-02-28T12:26:14.354Z,14.50
2019-02-28T12:28:41.874Z,14.50
2019-02-28T12:31:09.538Z,14.60
2019-02-28T12:33:36.997Z,14.70
2019-02-28T12:36:04.482Z,14.80
2019-02-28T12:38:31.892Z,14.90
2019-02-28T12:40:59.347Z,15.00
2019-02-28T12:43:26.762Z,15.10
2019-02-28T12:45:56.805Z,15.30
2019-02-28T12:48:23.533Z,15.40
2019-02-28T12:50:50.927Z,15.60
2019-02-28T12:53:18.324Z,15.80
2019-02-28T12:55:45.921Z,15.80
2019-02-28T12:58:13.440Z,16.10
2019-02-28T13:00:40.989Z,16.60
2019-02-28T13:03:09.236Z,16.90
2019-02-28T13:05:36.735Z,17.30
2019-02-28T13:08:05.815Z,17.60
2019-02-28T13:10:33.969Z,17.70
2019-02-28T13:13:06.307Z,18.00
2019-02-28T13:15:30.968Z,18.20
2019-02-28T13:17:58.432Z,18.30
2019-02-28T13:20:32.172Z,18.40
2019-02-28T13:22:59.170Z,18.60
2019-02-28T13:25:25.453Z,18.70
2019-02-28T13:27:52.866Z,18.70
2019-02-28T13:30:21.728Z,18.80
2019-02-28T13:32:49.110Z,18.80
2019-02-28T13:35:18.853Z,18.80
2019-02-28T13:37:46.255Z,18.80
2019-02-28T13:40:13.853Z,18.90
2019-02-28T13:42:42.273Z,18.90
2019-02-28T13:45:16.186Z,19.00
2019-02-28T13:47:42.015Z,19.00
2019-02-28T13:50:13.064Z,19.00
2019-02-28T13:52:40.418Z,19.00
2019-02-28T13:55:08.930Z,19.00
2019-02-28T13:57:40.723Z,19.00
2019-02-28T14:00:12.761Z,19.00
2019-02-28T14:02:40.151Z,18.90
2019-02-28T14:05:07.593Z,18.80
2019-02-28T14:07:35.113Z,18.80
2019-02-28T14:10:02.834Z,18.90
2019-02-28T14:12:30.237Z,18.90
2019-02-28T14:14:57.686Z,18.90
2019-02-28T14:17:25.096Z,18.90
2019-02-28T14:19:53.472Z,18.90
2019-02-28T14:22:21.023Z,19.00
2019-02-28T14:24:48.662Z,19.10
2019-02-28T14:27:16.553Z,18.90
2019-02-28T14:29:48.255Z,18.90
2019-02-28T14:32:13.263Z,18.80
2019-02-28T14:34:40.698Z,18.80
2019-02-28T14:37:08.306Z,18.90
2019-02-28T14:39:39.839Z,18.90
2019-02-28T14:42:07.991Z,18.80
2019-02-28T14:44:35.571Z,18.70
2019-02-28T14:47:02.967Z,18.70
2019-02-28T14:49:30.395Z,18.60
2019-02-28T14:52:00.423Z,18.70
2019-02-28T14:54:27.047Z,18.60
2019-02-28T14:56:54.442Z,19.00
2019-02-28T14:59:22.002Z,19.30
2019-02-28T15:01:49.502Z,19.30
2019-02-28T15:04:18.631Z,19.00
2019-02-28T15:06:47.386Z,18.60
2019-02-28T15:09:16.487Z,18.30
2019-02-28T15:11:46.871Z,18.20
2019-02-28T15:14:13.327Z,17.90
2019-02-28T15:16:40.736Z,17.80
2019-02-28T15:19:08.231Z,17.60
2019-02-28T15:21:35.691Z,17.60
2019-02-28T15:24:08.352Z,17.60
2019-02-28T15:26:34.793Z,17.60
2019-02-28T15:29:02.922Z,17.40
2019-02-28T15:31:49.910Z,17.40
2019-02-28T15:34:17.595Z,17.30
2019-02-28T15:36:45.039Z,17.30
2019-02-28T15:39:12.412Z,17.40
2019-02-28T15:41:40.043Z,17.40
2019-02-28T15:44:07.456Z,17.30
2019-02-28T15:46:35.991Z,17.20
2019-02-28T15:49:06.472Z,17.10
2019-02-28T15:51:33.041Z,17.00
2019-02-28T15:54:00.594Z,17.00
2019-02-28T15:56:28.213Z,16.80
2019-02-28T15:58:55.623Z,16.70
2019-02-28T16:01:23.033Z,16.50
2019-02-28T16:03:51.373Z,16.50
2019-02-28T16:06:20.631Z,16.40
2019-02-28T16:08:48.106Z,16.40
2019-02-28T16:11:15.663Z,16.20
2019-02-28T16:13:43.091Z,16.10
2019-02-28T16:16:12.289Z,16.00
2019-02-28T16:18:40.676Z,15.90
2019-02-28T16:21:08.253Z,16.00
2019-02-28T16:23:35.787Z,15.80
2019-02-28T16:26:03.966Z,15.80
2019-02-28T16:28:31.359Z,15.80
2019-02-28T16:30:59.023Z,15.70
2019-02-28T16:33:26.459Z,15.80
2019-02-28T16:35:54.051Z,15.70
2019-02-28T16:38:21.456Z,15.70
2019-02-28T16:40:48.900Z,15.70
2019-02-28T16:43:17.482Z,15.40
2019-02-28T16:45:47.711Z,15.40
2019-02-28T16:48:15.383Z,15.30
2019-02-28T16:50:42.804Z,15.40
2019-02-28T16:53:14.789Z,15.60
2019-02-28T16:55:40.211Z,15.50
2019-02-28T16:58:07.522Z,15.60
2019-02-28T17:00:35.019Z,15.50
2019-02-28T17:03:03.945Z,15.50
2019-02-28T17:05:31.672Z,15.60
2019-02-28T17:07:58.983Z,15.60
2019-02-28T17:10:44.447Z,15.50
2019-02-28T17:13:35.572Z,15.30
2019-02-28T17:16:23.571Z,15.30
2019-02-28T17:18:53.558Z,15.20
2019-02-28T17:21:20.186Z,15.10
2019-02-28T17:23:47.802Z,14.90
2019-02-28T17:26:15.191Z,15.00
2019-02-28T17:28:56.891Z,15.00
2019-02-28T17:31:38.537Z,15.00
2019-02-28T17:34:06.251Z,15.00
2019-02-28T17:36:34.007Z,15.00
2019-02-28T17:39:01.415Z,14.90
2019-02-28T17:41:29.308Z,15.10
2019-02-28T17:44:37.481Z,15.20
2019-02-28T17:47:36.556Z,15.30
2019-02-28T17:50:47.263Z,15.30
2019-02-28T17:54:01.419Z,15.40
2019-02-28T17:57:12.822Z,15.20
2019-02-28T17:59:54.290Z,15.40
2019-02-28T18:03:06.446Z,15.40
2019-02-28T18:06:08.744Z,15.30
2019-02-28T18:09:14.290Z,15.00
2019-02-28T18:12:25.298Z,15.10
2019-02-28T18:15:16.137Z,15.10
2019-02-28T18:18:08.906Z,15.20
2019-02-28T18:21:12.190Z,15.10
2019-02-28T18:24:24.191Z,15.10
2019-02-28T18:27:11.594Z,15.00
2019-02-28T18:30:24.741Z,14.90
2019-02-28T18:32:52.307Z,15.10
2019-02-28T18:35:20.159Z,15.10
2019-02-28T18:37:47.622Z,15.20
2019-02-28T18:40:15.034Z,15.20
2019-02-28T18:42:42.524Z,15.00
2019-02-28T18:45:10.228Z,14.90
2019-02-28T18:47:39.721Z,15.00
2019-02-28T18:50:07.074Z,15.00
2019-02-28T18:52:34.522Z,15.00
2019-02-28T18:55:05.946Z,15.00
2019-02-28T18:57:31.132Z,15.00
2019-02-28T18:59:58.758Z,15.00
2019-02-28T19:02:27.262Z,15.10
2019-02-28T19:04:54.675Z,15.00
2019-02-28T19:07:22.306Z,15.00
2019-02-28T19:09:49.698Z,15.10
2019-02-28T19:12:17.115Z,15.30
2019-02-28T19:14:44.571Z,15.40
2019-02-28T19:17:11.979Z,15.40
2019-02-28T19:19:39.378Z,15.30
2019-02-28T19:22:06.970Z,15.30
2019-02-28T19:24:34.375Z,15.30
2019-02-28T19:27:01.778Z,15.10
2019-02-28T19:29:29.222Z,14.90
2019-02-28T19:31:56.626Z,15.10
2019-02-28T19:34:24.193Z,15.00
2019-02-28T19:36:52.015Z,14.90
2019-02-28T19:39:19.402Z,14.80
2019-02-28T19:41:46.917Z,14.70
2019-02-28T19:44:14.359Z,14.60
2019-02-28T19:46:41.777Z,14.50
2019-02-28T19:49:09.295Z,14.40
2019-02-28T19:51:36.937Z,14.40
2019-02-28T19:54:04.339Z,14.40
2019-02-28T19:56:31.757Z,14.40
2019-02-28T19:58:59.240Z,14.60
2019-02-28T20:01:26.643Z,14.60
2019-02-28T20:03:54.055Z,14.60
2019-02-28T20:06:21.709Z,14.70
2019-02-28T20:08:49.090Z,14.80
2019-02-28T20:11:16.492Z,14.80
2019-02-28T20:13:43.934Z,14.70
2019-02-28T20:16:11.335Z,14.70
2019-02-28T20:18:38.862Z,14.80
2019-02-28T20:21:06.914Z,14.80
2019-02-28T20:23:34.298Z,14.90
2019-02-28T20:26:01.683Z,14.90
2019-02-28T20:28:29.132Z,15.00
2019-02-28T20:30:56.539Z,15.10
2019-02-28T20:33:24.056Z,15.10
2019-02-28T20:35:51.858Z,15.30
2019-02-28T20:38:19.251Z,15.20
2019-02-28T20:40:46.631Z,15.20
2019-02-28T20:43:14.089Z,15.10
2019-02-28T20:45:41.495Z,15.00
2019-02-28T20:48:08.900Z,14.90
2019-02-28T20:50:38.860Z,15.00
2019-02-28T20:53:06.329Z,14.90
2019-02-28T20:55:33.744Z,14.80
2019-02-28T20:58:01.231Z,14.80
2019-02-28T21:00:28.598Z,14.70
2019-02-28T21:02:55.999Z,14.70
2019-02-28T21:05:23.450Z,14.70
2019-02-28T21:07:50.951Z,14.60
2019-02-28T21:10:18.346Z,14.50
2019-02-28T21:12:45.811Z,14.40
2019-02-28T21:15:32.799Z,14.40
2019-02-28T21:18:00.991Z,14.40
2019-02-28T21:20:28.403Z,14.40
2019-02-28T21:22:55.842Z,14.30
2019-02-28T21:25:23.410Z,14.30
2019-02-28T21:27:50.818Z,14.20
2019-02-28T21:30:19.478Z,14.20
2019-02-28T21:32:47.346Z,14.10
2019-02-28T21:35:15.866Z,13.90
2019-02-28T21:37:43.708Z,13.90
2019-02-28T21:40:12.074Z,13.80
2019-02-28T21:42:39.465Z,13.90
2019-02-28T21:45:08.042Z,14.10
2019-02-28T21:47:35.589Z,14.20
2019-02-28T21:50:03.882Z,14.20
2019-02-28T21:52:31.266Z,14.10
2019-02-28T21:54:58.695Z,14.10
2019-02-28T21:57:26.102Z,14.00
2019-02-28T21:59:53.496Z,14.00
2019-02-28T22:02:20.959Z,14.20
2019-02-28T22:04:48.347Z,14.20
2019-02-28T22:07:15.736Z,14.20
2019-02-28T22:09:43.178Z,14.10
2019-02-28T22:12:10.568Z,14.10
2019-02-28T22:14:37.990Z,14.10
2019-02-28T22:17:05.410Z,14.20
2019-02-28T22:19:33.040Z,14.20
2019-02-28T22:22:00.450Z,14.10
2019-02-28T22:24:27.936Z,14.10
2019-02-28T22:26:55.351Z,14.10
2019-02-28T22:29:22.750Z,14.10
2019-02-28T22:32:28.130Z,14.00
2019-02-28T22:35:19.284Z,13.90
2019-02-28T22:37:47.049Z,13.80
2019-02-28T22:40:14.463Z,13.80
2019-02-28T22:42:41.850Z,13.80
2019-02-28T22:45:09.647Z,13.80
2019-02-28T22:47:37.050Z,13.70
2019-02-28T22:50:04.674Z,13.60
2019-02-28T22:52:32.335Z,13.60
2019-02-28T22:54:59.731Z,13.60
2019-02-28T22:57:27.152Z,13.60
2019-02-28T22:59:54.604Z,13.40
2019-02-28T23:02:22.974Z,13.40
2019-02-28T23:04:50.382Z,13.40
2019-02-28T23:07:17.818Z,13.30
2019-02-28T23:09:45.220Z,13.20
2019-02-28T23:12:12.611Z,13.30
2019-02-28T23:14:40.220Z,13.30
2019-02-28T23:17:08.237Z,13.20
2019-02-28T23:19:35.578Z,13.20
2019-02-28T23:22:02.978Z,13.10
2019-02-28T23:24:30.352Z,13.10
2019-02-28T23:27:17.306Z,13.10
2019-02-28T23:29:49.338Z,13.10
2019-02-28T23:32:45.281Z,13.10
2019-02-28T23:35:19.270Z,13.00
2019-02-28T23:37:46.650Z,13.00
2019-02-28T23:40:14.063Z,12.90
2019-02-28T23:42:41.648Z,12.80
2019-02-28T23:45:09.042Z,12.80
2019-02-28T23:47:37.575Z,12.70
2019-02-28T23:50:05.778Z,12.70
2019-02-28T23:52:33.175Z,12.70
2019-02-28T23:55:00.562Z,12.60
2019-02-28T23:57:28.007Z,12.60
2019-02-28T23:59:55.394Z,12.40
